createdAt,value
2018-07-09T00:03:09.306Z,5.20
2018-07-09T00:08:13.412Z,4.80
2018-07-09T00:13:16.835Z,5.00
2018-07-09T00:18:20.169Z,4.17
2018-07-09T00:23:23.320Z,4.70
2018-07-09T00:28:26.856Z,4.80
2018-07-09T00:33:30.176Z,5.43
2018-07-09T00:38:33.394Z,5.17
2018-07-09T00:43:36.802Z,4.20
2018-07-09T00:48:40.064Z,4.53
2018-07-09T00:53:43.490Z,4.30
2018-07-09T00:58:46.884Z,4.20
2018-07-09T01:03:50.172Z,4.23
2018-07-09T01:08:53.376Z,4.07
2018-07-09T01:13:56.872Z,4.63
2018-07-09T01:19:00.116Z,4.50
2018-07-09T01:24:03.431Z,3.80
2018-07-09T01:29:06.725Z,4.17
2018-07-09T01:34:10.040Z,3.67
2018-07-09T01:39:13.304Z,4.30
2018-07-09T01:44:16.842Z,4.17
2018-07-09T01:49:20.056Z,4.10
2018-07-09T01:54:23.261Z,4.17
2018-07-09T01:59:26.740Z,3.87
2018-07-09T02:04:29.935Z,4.37
2018-07-09T02:09:33.373Z,4.23
2018-07-09T02:14:36.602Z,4.50
2018-07-09T02:19:39.806Z,3.93
2018-07-09T02:24:43.273Z,3.73
2018-07-09T02:29:46.487Z,3.90
2018-07-09T02:34:49.689Z,3.40
2018-07-09T02:39:52.875Z,3.60
2018-07-09T02:44:56.061Z,3.50
2018-07-09T02:49:59.252Z,3.97
2018-07-09T02:55:02.520Z,3.70
2018-07-09T03:00:05.864Z,3.30
2018-07-09T03:05:09.232Z,3.10
2018-07-09T03:10:12.474Z,3.60
2018-07-09T03:15:15.906Z,3.50
2018-07-09T03:20:19.400Z,2.90
2018-07-09T03:25:22.640Z,3.17
2018-07-09T03:30:25.806Z,3.23
2018-07-09T03:35:29.034Z,3.10
2018-07-09T03:40:32.242Z,3.13
2018-07-09T03:45:35.474Z,2.30
2018-07-09T03:50:38.684Z,3.10
2018-07-09T03:55:42.082Z,2.63
2018-07-09T04:00:45.352Z,3.00
2018-07-09T04:05:48.606Z,3.37
2018-07-09T04:10:52.105Z,2.97
2018-07-09T04:15:55.332Z,3.10
2018-07-09T04:20:58.586Z,3.40
2018-07-09T04:26:02.146Z,3.53
2018-07-09T04:31:05.430Z,2.63
2018-07-09T04:36:08.664Z,3.00
2018-07-09T04:41:11.977Z,3.03
2018-07-09T04:46:15.205Z,3.57
2018-07-09T04:51:18.542Z,2.80
2018-07-09T04:56:22.013Z,3.10
2018-07-09T05:01:25.430Z,3.03
2018-07-09T05:06:28.636Z,2.70
2018-07-09T05:11:31.887Z,2.80
2018-07-09T05:16:35.139Z,2.47
2018-07-09T05:21:38.510Z,2.20
2018-07-09T05:26:41.951Z,2.27
2018-07-09T05:31:45.141Z,2.20
2018-07-09T05:36:48.531Z,2.30
2018-07-09T05:41:52.208Z,2.57
2018-07-09T05:46:55.569Z,2.40
2018-07-09T05:51:58.769Z,2.80
2018-07-09T05:57:02.825Z,2.57
2018-07-09T06:02:06.255Z,2.37
2018-07-09T06:07:09.481Z,2.77
2018-07-09T06:12:12.720Z,2.30
2018-07-09T06:17:15.875Z,2.40
2018-07-09T06:22:19.587Z,2.10
2018-07-09T06:27:22.983Z,1.90
2018-07-09T06:32:26.229Z,1.80
2018-07-09T06:37:29.521Z,1.83
2018-07-09T06:42:32.869Z,2.23
2018-07-09T06:47:36.233Z,2.13
2018-07-09T06:52:39.470Z,2.00
2018-07-09T06:57:42.783Z,1.63
2018-07-09T07:02:46.071Z,1.73
2018-07-09T07:07:49.369Z,1.93
2018-07-09T07:12:52.594Z,1.50
2018-07-09T07:17:55.826Z,1.47
2018-07-09T07:22:59.473Z,1.40
2018-07-09T07:28:02.810Z,1.70
2018-07-09T07:33:06.976Z,1.47
2018-07-09T07:38:10.865Z,2.00
2018-07-09T07:43:14.431Z,1.77
2018-07-09T07:48:17.850Z,2.83
2018-07-09T07:53:21.100Z,1.50
2018-07-09T07:58:24.312Z,1.77
2018-07-09T08:03:27.748Z,1.70
2018-07-09T08:08:31.022Z,1.80
2018-07-09T08:13:35.056Z,1.70
2018-07-09T08:18:38.214Z,1.87
2018-07-09T08:23:41.486Z,1.50
2018-07-09T08:28:44.746Z,1.47
2018-07-09T08:33:48.106Z,1.90
2018-07-09T08:38:51.449Z,1.40
2018-07-09T08:43:54.669Z,1.50
2018-07-09T08:48:57.940Z,1.67
2018-07-09T08:54:01.232Z,1.30
2018-07-09T08:59:06.402Z,1.90
2018-07-09T09:04:09.590Z,1.83
2018-07-09T09:09:12.834Z,2.00
2018-07-09T09:14:16.156Z,1.73
2018-07-09T09:19:19.492Z,1.77
2018-07-09T09:24:22.817Z,1.10
2018-07-09T09:29:26.290Z,1.53
2018-07-09T09:34:29.668Z,1.40
2018-07-09T09:39:33.940Z,1.40
2018-07-09T09:44:37.136Z,1.70
2018-07-09T09:49:40.361Z,1.43
2018-07-09T09:54:43.760Z,1.60
2018-07-09T09:59:46.936Z,1.30
2018-07-09T10:04:50.363Z,1.50
2018-07-09T10:09:53.708Z,1.60
2018-07-09T10:14:57.461Z,1.70
2018-07-09T10:20:00.679Z,1.50
2018-07-09T10:25:03.922Z,1.50
2018-07-09T10:30:07.305Z,1.40
2018-07-09T10:35:10.785Z,1.20
2018-07-09T10:40:13.985Z,1.77
2018-07-09T10:45:17.355Z,1.47
2018-07-09T10:50:20.735Z,1.50
2018-07-09T10:55:25.055Z,1.30
2018-07-09T11:00:28.332Z,1.50
2018-07-09T11:05:31.574Z,1.37
2018-07-09T11:10:34.742Z,1.70
2018-07-09T11:15:37.962Z,1.60
2018-07-09T11:20:41.414Z,1.80
2018-07-09T11:25:44.646Z,1.80
2018-07-09T11:30:48.344Z,1.60
2018-07-09T11:35:51.583Z,1.70
2018-07-09T11:40:54.844Z,2.00
2018-07-09T11:45:58.122Z,1.90
2018-07-09T11:51:01.436Z,1.70
2018-07-09T11:56:04.753Z,1.40
2018-07-09T12:01:08.290Z,1.70
2018-07-09T12:06:11.682Z,1.80
2018-07-09T12:11:15.536Z,1.60
2018-07-09T12:16:18.754Z,1.83
2018-07-09T12:21:21.955Z,2.20
2018-07-09T12:26:25.470Z,2.20
2018-07-09T12:31:28.638Z,1.50
2018-07-09T12:36:31.925Z,2.30
2018-07-09T12:41:35.249Z,2.10
2018-07-09T12:46:38.480Z,2.00
2018-07-09T12:51:41.683Z,1.53
2018-07-09T12:56:45.003Z,1.67
2018-07-09T13:01:48.674Z,2.13
2018-07-09T13:06:52.087Z,1.90
2018-07-09T13:11:55.318Z,2.00
2018-07-09T13:16:58.554Z,2.10
2018-07-09T13:22:01.792Z,2.20
2018-07-09T13:27:05.168Z,2.17
2018-07-09T13:32:08.341Z,2.10
2018-07-09T13:37:11.992Z,2.20
2018-07-09T13:42:15.238Z,2.27
2018-07-09T13:47:19.133Z,2.13
2018-07-09T13:52:22.737Z,2.10
2018-07-09T13:57:26.011Z,2.50
2018-07-09T14:02:29.525Z,1.90
2018-07-09T14:07:32.793Z,2.40
2018-07-09T14:12:36.019Z,2.13
2018-07-09T14:17:39.577Z,2.57
2018-07-09T14:22:42.842Z,2.20
2018-07-09T14:27:46.074Z,2.30
2018-07-09T14:32:49.328Z,2.50
2018-07-09T14:37:52.893Z,2.77
2018-07-09T14:42:56.687Z,2.80
2018-07-09T14:48:00.089Z,2.90
2018-07-09T14:53:03.620Z,3.13
2018-07-09T14:58:06.926Z,2.80
2018-07-09T15:03:10.363Z,2.87
2018-07-09T15:08:13.727Z,2.63
2018-07-09T15:13:16.965Z,2.67
2018-07-09T15:18:20.158Z,2.63
2018-07-09T15:23:23.467Z,2.37
2018-07-09T15:28:26.844Z,2.90
2018-07-09T15:33:30.169Z,2.70
2018-07-09T15:38:33.390Z,2.47
2018-07-09T15:43:48.096Z,2.40
2018-07-09T15:48:51.739Z,2.37
2018-07-09T15:53:55.456Z,2.67
2018-07-09T15:58:59.744Z,2.30
2018-07-09T16:04:03.055Z,2.20
2018-07-09T16:09:07.101Z,2.60
2018-07-09T16:14:10.360Z,2.73
2018-07-09T16:19:13.851Z,3.20
2018-07-09T16:24:17.034Z,2.57
2018-07-09T16:29:20.526Z,2.03
2018-07-09T16:34:24.017Z,2.30
2018-07-09T16:39:27.474Z,2.60
2018-07-09T16:44:30.748Z,2.27
2018-07-09T16:49:33.972Z,3.00
2018-07-09T16:54:37.408Z,2.73
2018-07-09T16:59:40.657Z,3.00
2018-07-09T17:04:43.948Z,2.30
2018-07-09T17:09:47.200Z,2.80
2018-07-09T17:14:50.429Z,3.00
2018-07-09T17:19:53.687Z,2.50
2018-07-09T17:24:56.905Z,2.40
2018-07-09T17:30:00.188Z,3.20
2018-07-09T17:35:04.086Z,2.50
2018-07-09T17:40:07.647Z,2.60
2018-07-09T17:45:10.941Z,2.80
2018-07-09T17:50:14.298Z,2.70
2018-07-09T17:55:18.340Z,2.40
2018-07-09T18:00:21.541Z,2.20
2018-07-09T18:05:24.851Z,3.00
2018-07-09T18:10:28.091Z,2.27
2018-07-09T18:15:31.669Z,2.70
2018-07-09T18:20:35.195Z,2.90
2018-07-09T18:25:38.626Z,2.50
2018-07-09T18:30:41.828Z,2.17
2018-07-09T18:35:45.055Z,2.07
2018-07-09T18:40:48.555Z,1.87
2018-07-09T18:45:51.764Z,2.50
2018-07-09T18:50:55.097Z,2.43
2018-07-09T18:55:58.669Z,2.40
2018-07-09T19:01:02.703Z,2.20
2018-07-09T19:07:11.612Z,2.60
2018-07-09T19:12:14.931Z,2.57
2018-07-09T19:18:27.097Z,2.27
2018-07-09T19:23:29.359Z,2.40
2018-07-09T19:28:31.697Z,2.63
2018-07-09T19:33:34.037Z,2.50
2018-07-09T19:38:36.855Z,2.40
2018-07-09T19:43:39.372Z,2.63
2018-07-09T19:48:41.588Z,2.60
2018-07-09T19:53:43.857Z,3.40
2018-07-09T19:58:47.154Z,2.67
2018-07-09T20:03:49.457Z,2.97
2018-07-09T20:08:57.197Z,3.57
2018-07-09T20:16:05.675Z,3.20
2018-07-09T20:21:08.083Z,4.27
2018-07-09T20:26:10.356Z,4.07
2018-07-09T20:31:12.694Z,3.60
2018-07-09T20:36:16.140Z,3.83
2018-07-09T20:41:18.425Z,3.90
2018-07-09T20:46:20.841Z,4.20
2018-07-09T20:51:23.306Z,3.60
2018-07-09T20:56:25.574Z,3.93
2018-07-09T21:01:27.854Z,3.70
2018-07-09T21:06:30.361Z,3.37
2018-07-09T21:11:32.710Z,3.50
2018-07-09T21:16:34.947Z,3.50
2018-07-09T21:21:37.208Z,3.47
2018-07-09T21:26:39.455Z,6.20
2018-07-09T21:31:41.836Z,4.27
2018-07-09T21:36:44.131Z,3.52
2018-07-09T21:41:46.369Z,2.97
2018-07-09T21:46:48.594Z,2.80
2018-07-09T21:51:50.837Z,2.90
2018-07-09T21:56:53.128Z,3.33
2018-07-09T22:01:55.392Z,4.37
2018-07-09T22:06:57.726Z,2.80
2018-07-09T22:12:00.059Z,3.00
2018-07-09T22:17:02.359Z,3.70
2018-07-09T22:22:04.803Z,2.57
2018-07-09T22:27:07.043Z,2.53
2018-07-09T22:32:10.266Z,2.50
2018-07-09T22:37:13.413Z,2.23
2018-07-09T22:42:16.992Z,1.90
2018-07-09T22:47:20.145Z,2.30
2018-07-09T22:52:23.561Z,2.70
2018-07-09T22:57:26.731Z,1.90
2018-07-09T23:02:30.076Z,2.67
2018-07-09T23:07:36.329Z,1.77
2018-07-09T23:13:21.620Z,1.53
2018-07-09T23:18:36.360Z,1.60
2018-07-09T23:23:38.624Z,2.57
2018-07-09T23:28:40.838Z,1.57
2018-07-09T23:33:43.110Z,1.70
2018-07-09T23:38:45.352Z,1.27
2018-07-09T23:43:47.701Z,1.60
2018-07-09T23:48:49.933Z,1.60
2018-07-09T23:53:52.454Z,1.47
2018-07-09T23:59:32.322Z,2.10
